METAR AND TAF INFORMATION
METAR FOR KPDX
KPDX 130753Z 29004KT 10SM FEW250 11/07 A2980 RMK AO2 SLP091 T01110067 402110094 $
KPDX 130653Z 30004KT 10SM SCT250 13/07 A2979 RMK AO2 SLP087 T01280072 $
KPDX 130553Z 31006KT 10SM FEW250 13/07 A2978 RMK AO2 SLP082 T01280072 10211 20128 53020 $
KPDX 130850Z 1309/1406 30006KT P6SM FEW100 BKN250

 AIRPORT MAP

 RUNWAY INFORMATION
Runway 03 Runway length 7001 ft Runway width 150 ft
Runway elevation 22 ft Runway displaced threshold 0 ft Runway heading 45
Runway 21 Runway length 7001 ft Runway width 150 ft
Runway elevation 27 ft Runway displaced threshold 680 ft Runway heading 225
Runway 10L Runway length 8000 ft Runway width 150 ft
Runway elevation 29 ft Runway displaced threshold 0 ft Runway heading 119
Runway 28R Runway length 8000 ft Runway width 150 ft
Runway elevation 29 ft Runway displaced threshold 0 ft Runway heading 299
Runway 10R Runway length 11000 ft Runway width 150 ft
Runway elevation 22 ft Runway displaced threshold 0 ft Runway heading 119
Runway 28L Runway length 11000 ft Runway width 150 ft
Runway elevation 23 ft Runway displaced threshold 0 ft Runway heading 299

 AIRPORT FREQUENCIES
Type ACP Name 939 ARW CO Frequency 124.35 MHZ
Type APP Name APP Frequency 118.1 MHZ
Type APP Name APP Frequency 29.92 MHZ
Type ATIS Name ATIS Frequency 120.625 MHZ
Type CLD Name CLNC DEL Frequency 120.125 MHZ
Type DEP Name DEP Frequency 118.1 MHZ
Type GND Name GND Frequency 121.9 MHZ
Type OPS Name ANG BASE O Frequency 28.05 MHZ
Type TWR Name TWR Frequency 118.7 MHZ
Type UNIC Name UNICOM Frequency 122.95 MHZ

 AIRPORT NEAR NAVIGATION AIDS
Type TACAN Name Columbia Frequency 109200 KHZ
Type VOR-DME Name Portland Frequency 111800 KHZ

-